Time;durP1;ratioP1;P1;durP2;ratioP2;P2;SDS_P1;SDS_P2;PMS_P1;PMS_P2;Temp;Humidity;BMP_temperature;BMP_pressure;BME280_temperature;BME280_humidity;BME280_pressure;Samples;Min_cycle;Max_cycle;Signal;HPM_P1;HPM_P2
2023/09/04 00:01:19;;;;;;;8.73;7.82;;;;;;;15.90;100.00;102820.69;5068613;28;20104;-65
2023/09/04 00:03:46;;;;;;;10.35;8.65;;;;;;;15.86;100.00;102822.53;5067291;28;20159;-67
2023/09/04 00:06:11;;;;;;;9.50;7.65;;;;;;;15.84;100.00;102812.84;5067778;28;20024;-62
2023/09/04 00:08:36;;;;;;;10.55;8.60;;;;;;;15.80;100.00;102812.03;5065039;28;20025;-65
2023/09/04 00:11:02;;;;;;;9.40;8.40;;;;;;;15.78;100.00;102813.88;5067506;28;20025;-67
2023/09/04 00:13:27;;;;;;;12.20;8.50;;;;;;;15.76;100.00;102805.94;5066760;28;20056;-64
2023/09/04 00:15:56;;;;;;;10.60;8.88;;;;;;;15.76;100.00;102797.97;5067483;28;20060;-58
2023/09/04 00:18:24;;;;;;;10.02;8.40;;;;;;;15.78;100.00;102804.09;5067605;28;20509;-63
2023/09/04 00:20:52;;;;;;;13.02;8.10;;;;;;;15.75;100.00;102800.66;5067894;28;20058;-65
2023/09/04 00:23:17;;;;;;;11.00;8.02;;;;;;;15.75;100.00;102805.97;5067283;28;20020;-65
2023/09/04 00:25:43;;;;;;;9.80;8.27;;;;;;;15.74;100.00;102810.41;5065674;28;20043;-65
2023/09/04 00:28:08;;;;;;;10.55;7.78;;;;;;;15.73;100.00;102806.00;5067933;28;20020;-62
2023/09/04 00:30:34;;;;;;;9.73;8.20;;;;;;;15.68;100.00;102807.03;5066846;28;20059;-64
2023/09/04 00:32:59;;;;;;;10.57;8.48;;;;;;;15.64;100.00;102809.75;5065969;28;20036;-66
2023/09/04 00:35:25;;;;;;;9.18;8.13;;;;;;;15.62;100.00;102814.22;5066864;28;20364;-62
2023/09/04 00:37:50;;;;;;;9.02;8.05;;;;;;;15.70;100.00;102811.41;5067228;28;20024;-65
2023/09/04 00:40:15;;;;;;;8.48;7.68;;;;;;;15.66;100.00;102812.38;5066690;28;20463;-66
2023/09/04 00:42:41;;;;;;;10.80;8.07;;;;;;;15.64;100.00;102825.72;5066777;28;20025;-61
2023/09/04 00:45:11;;;;;;;9.75;7.72;;;;;;;15.62;100.00;102816.88;5067102;28;20413;-63
2023/09/04 00:47:36;;;;;;;9.63;8.48;;;;;;;15.60;100.00;102821.38;5066359;28;20459;-66
2023/09/04 00:50:02;;;;;;;11.85;8.77;;;;;;;15.63;100.00;102818.63;5064921;28;20126;-60
2023/09/04 00:52:28;;;;;;;8.75;7.95;;;;;;;15.60;100.00;102817.84;5066624;28;20004;-61
2023/09/04 00:54:54;;;;;;;9.77;8.70;;;;;;;15.53;100.00;102815.31;5066158;28;20078;-65
2023/09/04 00:57:20;;;;;;;10.55;8.50;;;;;;;15.50;100.00;102818.06;5065426;28;20017;-61
2023/09/04 00:59:46;;;;;;;11.10;8.85;;;;;;;15.51;100.00;102809.16;5064643;28;20491;-66
2023/09/04 01:02:14;;;;;;;11.27;9.18;;;;;;;15.48;100.00;102800.41;5067782;28;20107;-64
2023/09/04 01:04:39;;;;;;;11.18;8.43;;;;;;;15.45;100.00;102809.34;5065452;28;20066;-63
2023/09/04 01:07:04;;;;;;;10.68;7.93;;;;;;;15.46;100.00;102804.88;5067076;28;20024;-64
2023/09/04 01:09:30;;;;;;;11.15;8.93;;;;;;;15.41;100.00;102810.28;5065546;28;20031;-60
2023/09/04 01:12:04;;;;;;;11.43;8.98;;;;;;;15.34;100.00;102812.22;5066106;28;20506;-65
2023/09/04 01:14:30;;;;;;;9.50;8.48;;;;;;;15.32;100.00;102808.72;5065508;28;20037;-59
2023/09/04 01:16:56;;;;;;;9.70;8.60;;;;;;;15.35;100.00;102808.66;5064940;28;20025;-68
2023/09/04 01:19:22;;;;;;;12.60;8.88;;;;;;;15.32;100.00;102807.88;5066490;28;20040;-57
2023/09/04 01:21:47;;;;;;;9.90;8.40;;;;;;;15.28;100.00;102813.25;5066652;28;20025;-64
2023/09/04 01:24:13;;;;;;;12.27;9.43;;;;;;;15.27;100.00;102805.31;5067462;28;20025;-65
2023/09/04 01:26:55;;;;;;;11.50;8.25;;;;;;;15.27;100.00;102805.31;5065167;28;20042;-64
2023/09/04 01:29:58;;;;;;;12.57;8.57;;;;;;;15.24;100.00;102810.69;5066621;28;20039;-62
2023/09/04 01:32:36;;;;;;;15.35;9.55;;;;;;;15.26;100.00;102798.25;5067348;28;20642;-64
2023/09/04 01:35:04;;;;;;;12.47;9.43;;;;;;;15.27;100.00;102803.50;5068039;28;20364;-60
2023/09/04 01:37:30;;;;;;;10.30;9.23;;;;;;;15.20;100.00;102803.69;5069944;28;20024;-67
2023/09/04 01:39:56;;;;;;;10.65;9.23;;;;;;;15.21;100.00;102805.44;5069828;28;20021;-62
2023/09/04 01:42:21;;;;;;;13.73;9.68;;;;;;;15.20;100.00;102803.69;5070725;28;20501;-67
2023/09/04 01:44:46;;;;;;;15.02;9.65;;;;;;;15.24;100.00;102805.38;5069204;28;20336;-58
2023/09/04 01:47:12;;;;;;;10.85;9.43;;;;;;;15.27;100.00;102810.63;5070860;28;20584;-62
2023/09/04 01:49:37;;;;;;;12.05;9.85;;;;;;;15.27;100.00;102802.66;5069073;28;20031;-64
2023/09/04 01:52:03;;;;;;;13.05;9.05;;;;;;;15.27;100.00;102800.84;5069919;28;20028;-66
2023/09/04 01:54:29;;;;;;;13.10;9.45;;;;;;;15.22;100.00;102807.19;5068135;28;20058;-65
2023/09/04 01:56:54;;;;;;;13.15;9.27;;;;;;;15.22;100.00;102808.06;5070448;28;20020;-63
2023/09/04 01:59:19;;;;;;;10.00;8.77;;;;;;;15.24;100.00;102802.72;5070530;28;20029;-63
2023/09/04 02:01:45;;;;;;;14.65;9.68;;;;;;;15.20;100.00;102801.03;5068975;28;20028;-65
2023/09/04 02:04:10;;;;;;;9.63;8.63;;;;;;;15.21;100.00;102801.00;5070183;28;20044;-66
2023/09/04 02:06:36;;;;;;;11.30;8.40;;;;;;;15.16;100.00;102798.44;5069814;28;20056;-63
2023/09/04 02:09:02;;;;;;;9.57;8.57;;;;;;;15.18;100.00;102794.88;5069329;28;20063;-65
2023/09/04 02:11:28;;;;;;;11.32;8.55;;;;;;;15.10;100.00;102795.94;5068609;28;20028;-66
2023/09/04 02:13:54;;;;;;;9.25;8.32;;;;;;;15.08;100.00;102788.91;5069917;28;20463;-62
2023/09/04 02:16:19;;;;;;;9.57;7.88;;;;;;;15.08;100.00;102788.91;5070293;28;20028;-65
2023/09/04 02:18:44;;;;;;;10.52;8.45;;;;;;;15.05;100.00;102789.81;5069772;28;20435;-66
2023/09/04 02:21:10;;;;;;;9.80;8.50;;;;;;;15.00;100.00;102781.09;5068683;28;20505;-64
2023/09/04 02:23:35;;;;;;;9.40;8.45;;;;;;;14.95;100.00;102788.28;5069971;28;20538;-62
2023/09/04 02:26:02;;;;;;;11.07;8.13;;;;;;;14.93;100.00;102784.81;5067968;28;20041;-64
2023/09/04 02:28:28;;;;;;;9.52;8.63;;;;;;;14.96;100.00;102782.09;5069175;28;20035;-64
2023/09/04 02:30:54;;;;;;;9.63;8.43;;;;;;;14.91;100.00;102784.84;5068789;28;20386;-64
2023/09/04 02:33:19;;;;;;;9.70;8.43;;;;;;;14.85;100.00;102780.53;5069743;28;20100;-58
2023/09/04 02:35:44;;;;;;;13.43;8.50;;;;;;;14.79;100.00;102778.00;5068918;28;20408;-65
2023/09/04 02:38:10;;;;;;;10.32;8.82;;;;;;;14.77;100.00;102777.13;5067821;28;20039;-64
2023/09/04 02:40:35;;;;;;;9.95;8.95;;;;;;;14.77;100.00;102771.81;5068542;28;20099;-65
2023/09/04 02:43:01;;;;;;;10.90;9.40;;;;;;;14.78;100.00;102763.84;5068287;28;20489;-60
2023/09/04 02:45:26;;;;;;;10.32;8.95;;;;;;;14.76;100.00;102765.66;5067826;28;20198;-63
2023/09/04 02:47:51;;;;;;;11.63;9.77;;;;;;;14.73;100.00;102755.09;5068524;28;20040;-66
2023/09/04 02:50:17;;;;;;;10.43;9.30;;;;;;;14.69;100.00;102753.38;5070201;28;20048;-65
2023/09/04 02:52:43;;;;;;;10.07;8.68;;;;;;;14.69;100.00;102749.88;5067978;28;20039;-62
2023/09/04 02:55:08;;;;;;;9.75;8.75;;;;;;;14.63;100.00;102745.59;5068285;28;20029;-65
2023/09/04 02:57:33;;;;;;;12.63;10.02;;;;;;;14.63;100.00;102741.13;5067723;28;20111;-64
2023/09/04 02:59:59;;;;;;;10.23;9.05;;;;;;;14.70;100.00;102741.00;5069010;28;20048;-59
2023/09/04 03:02:25;;;;;;;11.63;9.55;;;;;;;14.64;100.00;102737.59;5067727;28;20115;-63
2023/09/04 03:04:54;;;;;;;11.52;9.05;;;;;;;14.58;100.00;102731.53;5049574;28;20375;-63
2023/09/04 03:07:21;;;;;;;11.57;9.02;;;;;;;14.55;100.00;102737.78;5068492;28;20063;-66
2023/09/04 03:09:46;;;;;;;12.68;10.15;;;;;;;14.63;100.00;102742.94;5067768;28;20070;-63
2023/09/04 03:12:12;;;;;;;12.90;9.48;;;;;;;14.63;100.00;102746.44;5068295;28;20029;-65
2023/09/04 03:14:37;;;;;;;10.73;9.63;;;;;;;14.59;100.00;102734.16;5067778;28;20048;-66
2023/09/04 03:17:04;;;;;;;11.23;9.93;;;;;;;14.61;100.00;102734.13;5068798;28;20475;-63
2023/09/04 03:19:29;;;;;;;12.63;9.90;;;;;;;14.62;100.00;102738.50;5068073;28;20028;-63
2023/09/04 03:21:55;;;;;;;12.15;8.93;;;;;;;14.58;100.00;102736.81;5066619;28;20415;-62
2023/09/04 03:24:20;;;;;;;11.95;10.13;;;;;;;14.55;100.00;102736.88;5068672;28;20076;-61
2023/09/04 03:26:46;;;;;;;12.57;10.15;;;;;;;14.50;100.00;102736.97;5067525;28;20029;-64
2023/09/04 03:29:11;;;;;;;10.90;9.75;;;;;;;14.53;100.00;102735.16;5067650;28;20522;-59
2023/09/04 03:31:36;;;;;;;13.13;9.88;;;;;;;14.48;100.00;102736.16;5068644;28;20530;-64
2023/09/04 03:34:02;;;;;;;12.73;9.65;;;;;;;14.40;100.00;102741.59;5067721;28;20052;-60
2023/09/04 03:36:27;;;;;;;11.43;10.18;;;;;;;14.44;100.00;102737.09;5067541;28;20050;-54
2023/09/04 03:38:52;;;;;;;13.90;10.45;;;;;;;14.39;100.00;102732.75;5068156;28;20021;-60
2023/09/04 03:41:18;;;;;;;11.48;10.25;;;;;;;14.48;100.00;102730.84;5066893;28;20518;-65
2023/09/04 03:43:43;;;;;;;10.95;9.85;;;;;;;14.55;100.00;102732.47;5067987;28;20367;-59
2023/09/04 03:46:13;;;;;;;15.20;10.60;;;;;;;14.52;100.00;102727.22;5067380;28;20047;-65
2023/09/04 03:48:38;;;;;;;11.80;10.38;;;;;;;14.50;100.00;102729.03;5066994;28;20062;-65
2023/09/04 03:51:03;;;;;;;12.20;10.93;;;;;;;14.49;100.00;102730.81;5067096;28;20028;-57
2023/09/04 03:53:29;;;;;;;12.80;10.75;;;;;;;14.49;100.00;102716.66;5068329;28;20025;-65
2023/09/04 03:56:02;;;;;;;13.05;10.50;;;;;;;14.48;100.00;102712.28;5066047;28;20031;-62
2023/09/04 03:58:27;;;;;;;12.48;10.57;;;;;;;14.44;100.00;102714.13;5068254;28;20020;-62
2023/09/04 04:00:57;;;;;;;13.43;10.35;;;;;;;14.37;100.00;102710.72;5067002;28;20043;-63
2023/09/04 04:03:22;;;;;;;13.20;10.45;;;;;;;14.29;100.00;102709.97;5067814;28;20050;-58
2023/09/04 04:05:48;;;;;;;12.48;10.20;;;;;;;14.20;100.00;102716.34;5067483;28;20522;-64
2023/09/04 04:08:13;;;;;;;11.30;10.10;;;;;;;14.11;100.00;102714.75;5066310;28;20108;-65
2023/09/04 04:10:39;;;;;;;12.98;11.20;;;;;;;14.06;100.00;102711.28;5065491;28;20081;-64
2023/09/04 04:13:05;;;;;;;13.13;10.18;;;;;;;14.00;100.00;102714.09;5066232;28;20024;-63
2023/09/04 04:15:30;;;;;;;12.75;10.90;;;;;;;13.96;100.00;102718.56;5067607;28;20033;-63
2023/09/04 04:17:55;;;;;;;15.63;10.73;;;;;;;13.90;100.00;102716.88;5066758;28;20419;-63
2023/09/04 04:20:22;;;;;;;11.75;10.13;;;;;;;14.00;100.00;102714.94;5068254;28;20094;-58
2023/09/04 04:22:47;;;;;;;14.45;10.57;;;;;;;14.04;100.00;102713.13;5066527;28;20036;-63
2023/09/04 04:25:12;;;;;;;12.93;10.20;;;;;;;13.99;100.00;102721.16;5067539;28;20352;-63
2023/09/04 04:27:42;;;;;;;12.98;10.63;;;;;;;13.94;100.00;102719.50;5067278;28;20532;-56
2023/09/04 04:30:08;;;;;;;;;;;;;;;13.91;100.00;102712.47;5068554;28;20067;-66
2023/09/04 04:32:34;;;;;;;12.20;9.70;;;;;;;13.88;100.00;102716.03;5067128;28;19924;-60
2023/09/04 04:34:59;;;;;;;16.60;10.35;;;;;;;13.88;100.00;102723.97;5067751;28;20021;-68
2023/09/04 04:37:24;;;;;;;13.02;9.73;;;;;;;13.88;100.00;102716.03;5066624;28;20025;-64
2023/09/04 04:39:51;;;;;;;12.85;10.77;;;;;;;13.91;100.00;102720.44;5067043;28;20051;-62
2023/09/04 04:42:16;;;;;;;12.88;11.43;;;;;;;13.90;100.00;102713.34;5067766;28;20017;-65
2023/09/04 04:44:42;;;;;;;14.38;11.18;;;;;;;13.90;100.00;102718.66;5066723;28;20437;-60
2023/09/04 04:47:07;;;;;;;15.18;11.63;;;;;;;13.89;100.00;102717.81;5067338;28;20116;-63
2023/09/04 04:49:33;;;;;;;16.35;12.20;;;;;;;13.91;100.00;102715.13;5065578;28;20047;-64
2023/09/04 04:51:59;;;;;;;13.20;11.40;;;;;;;13.93;100.00;102715.94;5067610;28;20021;-64
2023/09/04 04:54:24;;;;;;;14.77;11.85;;;;;;;13.92;100.00;102718.63;5065946;28;20036;-53
2023/09/04 04:56:49;;;;;;;15.15;12.00;;;;;;;13.91;100.00;102715.13;5066226;28;20024;-64
2023/09/04 04:59:15;;;;;;;14.65;12.32;;;;;;;13.91;100.00;102720.44;5066238;28;20060;-59
2023/09/04 05:01:41;;;;;;;16.33;12.80;;;;;;;13.90;100.00;102713.34;5065667;28;20119;-60
2023/09/04 05:04:07;;;;;;;17.10;13.27;;;;;;;13.89;100.00;102719.56;5067677;28;20089;-63
2023/09/04 05:06:32;;;;;;;18.30;12.77;;;;;;;13.89;100.00;102712.50;5066035;28;20085;-64
2023/09/04 05:08:58;;;;;;;17.85;12.65;;;;;;;13.88;100.00;102710.72;5071101;28;20017;-64
2023/09/04 05:11:23;;;;;;;20.10;11.93;;;;;;;13.87;100.00;102711.63;5071032;28;20027;-64
2023/09/04 05:13:48;;;;;;;15.20;12.30;;;;;;;13.88;100.00;102713.38;5071354;28;20021;-65
2023/09/04 05:16:14;;;;;;;18.42;13.20;;;;;;;13.89;100.00;102717.81;5071056;28;20025;-66
2023/09/04 05:18:39;;;;;;;16.15;13.07;;;;;;;13.90;100.00;102722.19;5070346;28;20105;-62
2023/09/04 05:21:06;;;;;;;16.92;13.35;;;;;;;13.94;100.00;102730.09;5071212;28;20029;-65
2023/09/04 05:23:31;;;;;;;17.05;13.48;;;;;;;13.94;100.00;102723.00;5069558;28;20424;-61
2023/09/04 05:25:57;;;;;;;18.13;13.57;;;;;;;13.91;100.00;102728.38;5065703;28;20028;-66
2023/09/04 05:28:23;;;;;;;17.58;13.52;;;;;;;13.94;100.00;102724.78;5070037;28;20036;-58
2023/09/04 05:30:48;;;;;;;18.88;12.90;;;;;;;13.98;100.00;102731.78;5069887;28;20502;-61
2023/09/04 05:33:13;;;;;;;18.50;14.48;;;;;;;14.07;100.00;102728.97;5069333;28;20024;-65
2023/09/04 05:35:39;;;;;;;16.77;13.52;;;;;;;14.07;100.00;102728.97;5070272;28;20445;-66
2023/09/04 05:38:04;;;;;;;16.67;13.70;;;;;;;14.09;100.00;102732.44;5066478;28;20107;-61
2023/09/04 05:40:30;;;;;;;17.35;13.98;;;;;;;14.11;100.00;102725.34;5101371;28;20028;-67
2023/09/04 05:42:56;;;;;;;18.02;13.60;;;;;;;14.15;100.00;102731.47;5069503;28;20064;-66
2023/09/04 05:45:22;;;;;;;16.50;13.23;;;;;;;14.19;100.00;102729.63;5068487;28;20506;-60
2023/09/04 05:47:48;;;;;;;16.98;13.68;;;;;;;14.21;100.00;102723.38;5069517;28;20131;-64
2023/09/04 05:50:13;;;;;;;16.95;13.73;;;;;;;14.27;100.00;102722.41;5069304;28;20104;-62
2023/09/04 05:52:39;;;;;;;15.77;12.88;;;;;;;14.36;100.00;102716.91;5068639;28;20455;-66
2023/09/04 05:55:05;;;;;;;18.38;13.50;;;;;;;14.39;100.00;102716.00;5069008;28;20058;-64
2023/09/04 05:57:30;;;;;;;19.05;12.48;;;;;;;14.45;100.00;102707.03;5068203;28;20100;-63
2023/09/04 05:59:56;;;;;;;16.63;12.45;;;;;;;14.55;100.00;102708.59;5069621;28;20505;-65
2023/09/04 06:02:21;;;;;;;17.80;12.70;;;;;;;14.60;100.00;102704.06;5068100;28;20453;-61
2023/09/04 06:04:46;;;;;;;20.85;13.35;;;;;;;14.74;100.00;102705.53;5068524;28;20568;-64
2023/09/04 06:07:13;;;;;;;16.65;12.35;;;;;;;14.79;100.00;102716.97;5067864;28;20043;-64
2023/09/04 06:09:38;;;;;;;16.20;13.15;;;;;;;14.84;100.00;102701.81;5066463;28;20052;-59
2023/09/04 06:12:05;;;;;;;15.10;12.85;;;;;;;14.90;100.00;102703.47;5069429;28;20159;-67
2023/09/04 06:14:30;;;;;;;27.20;11.80;;;;;;;15.05;100.00;102706.69;5067433;28;20229;-59
2023/09/04 06:16:55;;;;;;;16.42;13.00;;;;;;;15.14;100.00;102704.66;5067589;28;20033;-62
2023/09/04 06:19:21;;;;;;;16.35;12.57;;;;;;;15.27;100.00;102699.06;5068406;28;20024;-64
2023/09/04 06:21:46;;;;;;;13.82;12.02;;;;;;;15.30;100.00;102704.31;5067171;28;20468;-65
2023/09/04 06:24:11;;;;;;;14.18;11.30;;;;;;;15.40;100.00;102692.56;5064458;28;20588;-60
2023/09/04 06:26:37;;;;;;;13.05;11.10;;;;;;;15.52;100.00;102703.78;5067310;28;20024;-65
2023/09/04 06:29:03;;;;;;;14.68;11.48;;;;;;;15.55;100.00;102703.69;5067900;28;20029;-61
2023/09/04 06:31:28;;;;;;;14.38;11.52;;;;;;;15.67;100.00;102697.19;5067286;28;20070;-60
2023/09/04 06:33:55;;;;;;;14.52;11.07;;;;;;;15.73;100.00;102698.81;5064382;28;20028;-66
2023/09/04 06:36:20;;;;;;;15.68;11.90;;;;;;;15.74;100.00;102697.94;5067539;28;20191;-61
2023/09/04 06:38:46;;;;;;;15.50;12.05;;;;;;;15.81;100.00;102698.63;5066083;28;20544;-68
2023/09/04 06:41:11;;;;;;;14.32;11.23;;;;;;;15.85;100.00;102703.81;5066414;28;20048;-69
2023/09/04 06:43:36;;;;;;;12.70;10.93;;;;;;;16.02;100.00;102702.53;5067671;28;20040;-64
2023/09/04 06:46:02;;;;;;;15.45;10.90;;;;;;;16.07;100.00;102703.28;5067561;28;20045;-62
2023/09/04 06:48:28;;;;;;;13.30;11.40;;;;;;;16.03;100.00;102694.53;5065748;28;20061;-63
2023/09/04 06:50:53;;;;;;;12.52;10.75;;;;;;;16.11;100.00;102698.75;5067288;28;20446;-64
2023/09/04 06:53:19;;;;;;;14.75;12.32;;;;;;;16.15;100.00;102695.97;5067353;28;20044;-62
2023/09/04 06:55:46;;;;;;;14.65;11.85;;;;;;;16.24;100.00;102699.28;5064438;28;20044;-63
2023/09/04 06:58:12;;;;;;;14.50;11.80;;;;;;;16.33;100.00;102698.13;5067121;28;20032;-65
2023/09/04 07:00:37;;;;;;;14.07;12.10;;;;;;;16.50;100.00;102700.31;5067717;28;20383;-63
2023/09/04 07:03:04;;;;;;;15.57;11.88;;;;;;;16.58;100.00;102698.28;5067138;28;20393;-57
2023/09/04 07:05:29;;;;;;;18.13;12.25;;;;;;;16.68;100.00;102698.91;5066989;28;20082;-64
2023/09/04 07:07:54;;;;;;;14.52;12.07;;;;;;;16.76;100.00;102696.88;5065804;28;20028;-66
2023/09/04 07:10:20;;;;;;;18.27;11.60;;;;;;;16.87;100.00;102698.31;5067322;28;20029;-63
2023/09/04 07:12:45;;;;;;;14.80;12.18;;;;;;;16.97;100.00;102693.56;5066032;28;20021;-65
2023/09/04 07:15:11;;;;;;;18.95;13.25;;;;;;;17.02;100.00;102695.19;5065690;28;20029;-61
2023/09/04 07:17:36;;;;;;;14.90;11.20;;;;;;;17.19;100.00;102696.47;5067737;28;20116;-64
2023/09/04 07:20:01;;;;;;;13.30;11.70;;;;;;;17.24;100.00;102699.84;5066690;28;20409;-65
2023/09/04 07:22:27;;;;;;;14.65;11.65;;;;;;;17.27;100.00;102696.22;5064925;28;20103;-62
2023/09/04 07:24:52;;;;;;;13.35;10.60;;;;;;;17.33;100.00;102697.81;5067295;28;20494;-62
2023/09/04 07:27:18;;;;;;;14.63;11.27;;;;;;;17.53;100.00;102684.69;5065422;28;20043;-60
2023/09/04 07:29:43;;;;;;;13.57;10.90;;;;;;;17.64;100.00;102684.31;5065508;28;20195;-65
2023/09/04 07:32:08;;;;;;;14.50;11.27;;;;;;;17.72;100.00;102683.16;5066803;28;20375;-65
2023/09/04 07:34:34;;;;;;;14.27;11.20;;;;;;;17.71;100.00;102687.66;5064613;28;20109;-61
2023/09/04 07:36:59;;;;;;;17.27;12.30;;;;;;;17.67;100.00;102692.22;5067427;28;20407;-61
2023/09/04 07:39:24;;;;;;;17.83;11.50;;;;;;;17.81;100.00;102689.06;5064123;28;20024;-65
2023/09/04 07:41:50;;;;;;;14.20;11.30;;;;;;;17.86;100.00;102696.03;5067488;28;20124;-64
2023/09/04 07:44:15;;;;;;;13.55;10.52;;;;;;;18.04;100.00;102697.16;5066711;28;20025;-65
2023/09/04 07:46:40;;;;;;;13.23;10.77;;;;;;;18.26;100.00;102693.75;5064474;28;20239;-64
2023/09/04 07:49:06;;;;;;;12.55;11.23;;;;;;;18.30;100.00;102688.22;5067070;28;20485;-63
2023/09/04 07:51:31;;;;;;;12.98;10.85;;;;;;;18.35;100.00;102693.41;5065285;28;20079;-61
2023/09/04 07:53:58;;;;;;;9.73;8.70;;;;;;;18.44;100.00;102687.72;5064486;28;20039;-65
2023/09/04 07:56:23;;;;;;;14.90;10.40;;;;;;;18.58;100.00;102697.00;5066324;28;20563;-64
2023/09/04 07:58:49;;;;;;;19.80;12.15;;;;;;;18.57;100.00;102697.91;5064607;28;20034;-64
2023/09/04 08:01:14;;;;;;;16.58;11.07;;;;;;;18.67;100.00;102693.97;5065694;28;20024;-64
2023/09/04 08:03:43;;;;;;;13.68;11.32;;;;;;;18.75;100.00;102688.31;5045953;28;20025;-63
2023/09/04 08:06:08;;;;;;;17.98;11.05;;;;;;;18.75;100.00;102690.16;5045485;28;20025;-63
2023/09/04 08:08:34;;;;;;;18.52;11.88;;;;;;;18.90;100.00;102692.19;5064639;28;20032;-62
2023/09/04 08:10:59;;;;;;;15.00;10.57;;;;;;;18.99;100.00;102696.28;5066348;28;20024;-66
2023/09/04 08:13:24;;;;;;;15.55;10.65;;;;;;;19.07;100.00;102698.66;5064388;28;20016;-63
2023/09/04 08:15:50;;;;;;;13.00;10.40;;;;;;;19.21;100.00;102706.16;5066835;28;20491;-59
2023/09/04 08:18:15;;;;;;;23.80;11.27;;;;;;;19.12;100.00;102714.53;5064648;28;20433;-61
2023/09/04 08:20:41;;;;;;;19.17;11.07;;;;;;;19.13;100.00;102716.25;5065545;28;20027;-65
2023/09/04 08:23:07;;;;;;;13.13;11.25;;;;;;;19.25;100.00;102704.22;5065891;28;20043;-65
2023/09/04 08:25:33;;;;;;;14.32;9.88;;;;;;;19.39;100.00;102698.31;5063777;28;20036;-62
2023/09/04 08:27:59;;;;;;;13.00;10.68;;;;;;;19.50;100.00;102705.88;5065927;28;20082;-63
2023/09/04 08:30:24;;;;;;;13.30;10.85;;;;;;;19.49;100.00;102706.78;5063323;28;20034;-63
2023/09/04 08:32:50;;;;;;;13.02;10.13;;;;;;;19.66;100.00;102703.41;5064971;28;20036;-65
2023/09/04 08:35:16;;;;;;;12.93;10.63;;;;;;;19.74;100.00;102703.09;5065683;28;20023;-65
2023/09/04 08:37:41;;;;;;;16.30;10.75;;;;;;;19.81;100.00;102704.56;5063972;28;20441;-64
2023/09/04 08:40:07;;;;;;;15.55;11.10;;;;;;;19.93;100.00;102705.81;5065498;28;20070;-65
2023/09/04 08:42:33;;;;;;;11.65;9.10;;;;;;;20.05;100.00;102699.09;5064309;28;20017;-65
2023/09/04 08:44:58;;;;;;;11.85;10.27;;;;;;;20.17;100.00;102698.50;5064641;28;20415;-62
2023/09/04 08:47:25;;;;;;;11.55;9.80;;;;;;;20.26;100.00;102699.91;5065352;28;20379;-65
2023/09/04 08:49:55;;;;;;;12.05;10.43;;;;;;;20.30;100.00;102698.84;5064543;28;20032;-64
2023/09/04 08:52:20;;;;;;;12.25;10.10;;;;;;;20.45;100.00;102697.25;5065062;28;20029;-62
2023/09/04 08:54:47;;;;;;;13.68;10.60;;;;;;;20.46;100.00;102706.13;5062342;28;20044;-64
2023/09/04 08:57:13;;;;;;;11.40;9.13;;;;;;;20.61;100.00;102696.53;5063954;28;20086;-69
2023/09/04 08:59:38;;;;;;;11.25;9.93;;;;;;;20.71;100.00;102696.97;5066202;28;20028;-70
2023/09/04 09:02:04;;;;;;;15.20;10.88;;;;;;;20.70;100.00;102696.09;5063981;28;20027;-69
2023/09/04 09:04:31;;;;;;;13.90;10.95;;;;;;;20.85;100.00;102688.25;5065878;28;20104;-67
2023/09/04 09:06:57;;;;;;;12.00;10.73;;;;;;;20.89;100.00;102691.66;5093528;28;20162;-69
2023/09/04 09:09:23;;;;;;;11.90;10.00;;;;;;;21.01;100.00;102692.91;5064557;28;20150;-65
2023/09/04 09:11:54;;;;;;;12.75;10.63;;;;;;;20.98;100.00;102682.34;5065305;28;20468;-67
2023/09/04 09:14:21;;;;;;;12.18;10.88;;;;;;;21.15;100.00;102685.03;5065440;28;20125;-67
2023/09/04 09:16:46;;;;;;;13.27;11.15;;;;;;;21.12;100.00;102679.84;5065076;28;20089;-69
2023/09/04 09:19:13;;;;;;;17.58;10.57;;;;;;;21.31;100.00;102682.44;5065946;28;20186;-67
2023/09/04 09:21:38;;;;;;;13.25;10.45;;;;;;;21.33;100.00;102674.34;5064952;28;20523;-67
2023/09/04 09:24:10;;;;;;;11.38;10.27;;;;;;;21.19;100.00;102675.06;5063570;28;20178;-70
2023/09/04 09:26:37;;;;;;;10.80;9.48;;;;;;;21.13;100.00;102673.53;5064491;28;20064;-66
2023/09/04 09:29:03;;;;;;;12.52;9.80;;;;;;;21.25;100.00;102669.34;5063850;28;20024;-69
2023/09/04 09:31:29;;;;;;;14.25;10.13;;;;;;;21.49;100.00;102665.53;5063868;28;20141;-66
2023/09/04 09:33:55;;;;;;;14.35;9.93;;;;;;;21.69;100.00;102670.72;5065081;28;20032;-67
2023/09/04 09:36:21;;;;;;;10.10;8.88;;;;;;;21.73;100.00;102663.34;5062670;28;20328;-68
2023/09/04 09:38:46;;;;;;;13.32;10.60;;;;;;;21.79;100.00;102662.22;5062909;28;20021;-62
2023/09/04 09:41:15;;;;;;;10.77;9.32;;;;;;;21.95;100.00;102665.78;5064642;28;20032;-66
2023/09/04 09:43:41;;;;;;;15.32;10.15;;;;;;;22.08;100.00;102662.44;5062997;28;20032;-67
2023/09/04 09:46:09;;;;;;;15.20;9.77;;;;;;;22.02;100.00;102660.09;5064953;28;20040;-68
2023/09/04 09:48:36;;;;;;;10.15;8.60;;;;;;;22.10;100.00;102655.19;5062782;28;20047;-67
2023/09/04 09:51:03;;;;;;;17.55;9.55;;;;;;;22.18;100.00;102658.31;5065063;28;20107;-69
2023/09/04 09:53:46;;;;;;;11.55;9.80;;;;;;;22.33;100.00;102655.72;5063442;28;20062;-68
2023/09/04 09:56:13;;;;;;;11.25;9.35;;;;;;;22.39;100.00;102654.53;5067061;28;20101;-73
2023/09/04 09:58:40;;;;;;;11.52;8.77;;;;;;;22.51;100.00;102655.66;5068278;28;20063;-69
2023/09/04 10:01:05;;;;;;;14.25;8.98;;;;;;;22.66;100.00;102648.59;5065779;28;20025;-69
2023/09/04 10:03:33;;;;;;;12.95;8.52;;;;;;;22.75;100.00;102644.50;5064215;28;20036;-68
2023/09/04 10:06:04;;;;;;;11.45;8.63;;;;;;;22.65;100.00;102638.78;5067320;28;20035;-68
2023/09/04 10:08:33;;;;;;;10.57;8.52;;;;;;;22.72;100.00;102632.09;5065663;28;20058;-67
2023/09/04 10:11:00;;;;;;;10.05;8.90;;;;;;;22.77;100.00;102626.47;5066741;28;20067;-69
2023/09/04 10:13:28;;;;;;;10.80;7.95;;;;;;;23.26;100.00;102621.84;5067256;28;20028;-67
2023/09/04 10:15:57;;;;;;;9.88;7.70;;;;;;;23.38;100.00;102626.50;5081374;28;20023;-67
2023/09/04 10:18:29;;;;;;;9.77;8.77;;;;;;;23.37;100.00;102624.78;5066658;28;20090;-66
2023/09/04 10:20:56;;;;;;;10.48;8.80;;;;;;;23.43;100.00;102615.47;5067257;28;20021;-67
2023/09/04 10:23:24;;;;;;;8.70;7.80;;;;;;;23.52;100.00;102624.81;5062206;28;20494;-67
2023/09/04 10:26:07;;;;;;;10.18;7.95;;;;;;;23.43;100.00;102621.72;5067023;28;20036;-66
2023/09/04 10:28:36;;;;;;;9.57;7.35;;;;;;;23.52;100.00;102622.09;5064067;28;20390;-68
2023/09/04 10:31:02;;;;;;;11.20;7.53;;;;;;;23.62;100.00;102617.03;5068036;28;20031;-64
2023/09/04 10:33:28;;;;;;;10.43;7.88;;;;;;;23.73;100.00;102615.41;5065968;28;20028;-66
2023/09/04 10:35:58;;;;;;;10.27;7.82;;;;;;;24.04;100.00;102617.13;5066662;28;20094;-67
2023/09/04 10:38:24;;;;;;;10.45;7.30;;;;;;;24.17;100.00;102610.00;5066807;28;20525;-64
2023/09/04 10:40:50;;;;;;;9.00;5.78;;;;;;;24.34;98.85;102610.75;5064913;28;20518;-67
2023/09/04 10:43:16;;;;;;;9.57;5.95;;;;;;;24.30;100.00;102611.91;5068208;28;20021;-64
2023/09/04 10:45:41;;;;;;;7.85;6.05;;;;;;;24.25;96.34;102605.94;5067798;28;20047;-66
2023/09/04 10:48:06;;;;;;;6.53;5.75;;;;;;;24.45;97.86;102594.78;5063167;28;20536;-65
2023/09/04 10:50:35;;;;;;;12.00;6.38;;;;;;;24.43;96.55;102595.81;5068212;28;20028;-63
2023/09/04 10:53:01;;;;;;;8.82;6.13;;;;;;;24.40;95.46;102599.56;5067264;28;20027;-63
2023/09/04 10:55:28;;;;;;;8.63;6.90;;;;;;;24.44;96.50;102595.72;5068000;28;20043;-64
2023/09/04 10:57:57;;;;;;;6.80;6.13;;;;;;;24.65;93.12;102595.25;5067443;28;20052;-67
2023/09/04 11:00:36;;;;;;;8.80;5.80;;;;;;;24.92;99.02;102599.78;5064918;28;20027;-67
2023/09/04 11:03:23;;;;;;;6.75;5.13;;;;;;;25.24;90.67;102599.44;5066950;28;20032;-67